Ship Status Report: callsign NRPK

sailwx.info

Track history (hours):
 
Tides and Currents Weather Stations Pressure Air Temp Water Temp Dewpoint Dewpoint Depression Visibility Wind Speed Wind Dir Waves Ship Positions

Callsign NRPK (name unknown)

Last reported at 2015-Jan-30 17:31 UTC. Time now 2015-Feb-02 01:45 UTC.
Position N 34°42' W 076°41'.

AWS

Date/timePositionNaut miles runAvg speedWind from/ knotsBaromVisibWave heightAir tempDewpointWater temp
2015-Jan-30 17:31N 34°42' W 076°41'0 0.0
2015-Jan-30 16:31N 34°42' W 076°41'0 0.0
2015-Jan-30 15:31N 34°42' W 076°41'0 0.0
2015-Jan-30 14:31N 34°42' W 076°41'0 0.0
2015-Jan-30 13:32N 34°42' W 076°41'0 0.0
2015-Jan-30 12:32N 34°42' W 076°41'0 0.0
2015-Jan-30 11:29N 34°42' W 076°41'0 0.0
2015-Jan-30 10:32N 34°42' W 076°41'0 0.0
2015-Jan-30 09:31N 34°42' W 076°41'0 0.0
2015-Jan-30 08:29N 34°42' W 076°41'0 0.0
2015-Jan-30 07:31N 34°42' W 076°41'0 0.0
2015-Jan-30 06:32N 34°42' W 076°41'0 0.0
2015-Jan-30 05:32N 34°42' W 076°41'0 0.0
2015-Jan-30 04:32N 34°42' W 076°41'0 0.0
2015-Jan-30 03:31N 34°42' W 076°41'0 0.0
2015-Jan-30 02:31N 34°42' W 076°41'0 0.0
2015-Jan-30 01:31N 34°42' W 076°41'0 0.0
2015-Jan-30 00:32N 34°42' W 076°41'0 0.0
2015-Jan-29 23:32N 34°42' W 076°41'0 0.0
2015-Jan-29 22:32N 34°42' W 076°41'0 0.0
2015-Jan-29 21:32N 34°42' W 076°41'0 0.1
2015-Jan-29 20:33N 34°42' W 076°41'6 5.8
2015-Jan-29 19:33N 34°37' W 076°45'2 2.1
2015-Jan-29 18:33N 34°39' W 076°43'0 0.1
2015-Jan-29 17:31N 34°39' W 076°43'0 0.0
2015-Jan-29 16:31N 34°39' W 076°43'1 1.5
2015-Jan-29 15:34N 34°39' W 076°45'3 2.6
2015-Jan-29 14:34N 34°38' W 076°42'4 4.1
2015-Jan-29 13:30N 34°42' W 076°41'0 0.0
2015-Jan-29 12:33N 34°42' W 076°41'0 0.0
2015-Jan-29 11:33N 34°42' W 076°41'0 0.0
2015-Jan-29 10:31N 34°42' W 076°41'0 0.0
2015-Jan-29 09:31N 34°42' W 076°41'0 0.0
2015-Jan-29 08:33N 34°42' W 076°41'0 0.0
2015-Jan-29 07:28N 34°42' W 076°41'0 0.0
2015-Jan-29 06:31N 34°42' W 076°41'0 0.0
2015-Jan-29 05:30N 34°42' W 076°41'0 0.0
2015-Jan-29 04:30N 34°42' W 076°41'0 0.0
2015-Jan-29 03:33N 34°42' W 076°41'0 0.0
2015-Jan-29 02:33N 34°42' W 076°41'0 0.0
2015-Jan-29 01:33N 34°42' W 076°41'0 0.0
2015-Jan-29 00:33N 34°42' W 076°41'0 0.0
2015-Jan-28 23:33N 34°42' W 076°41'0 0.0
2015-Jan-28 22:33N 34°42' W 076°41'0 0.0
2015-Jan-28 21:33N 34°42' W 076°41'0 0.0
2015-Jan-28 20:33N 34°42' W 076°41'0 0.0
2015-Jan-28 19:30N 34°42' W 076°41'0 0.0
2015-Jan-28 18:30N 34°42' W 076°41'0 0.0
2015-Jan-28 17:31N 34°42' W 076°41'0 0.0
2015-Jan-28 16:25N 34°42' W 076°41'0 0.0
2015-Jan-28 15:31N 34°42' W 076°41'0 0.0
2015-Jan-28 14:33N 34°42' W 076°41'0 0.0
2015-Jan-28 13:33N 34°42' W 076°41'0 0.0
2015-Jan-28 12:30N 34°42' W 076°41'0 0.0
2015-Jan-28 11:33N 34°42' W 076°41'0 0.0
2015-Jan-28 10:33N 34°42' W 076°41'0 0.0
2015-Jan-28 09:33N 34°42' W 076°41'0 0.0
2015-Jan-28 08:31N 34°42' W 076°41'0 0.0
2015-Jan-28 07:31N 34°42' W 076°41'0 0.0
2015-Jan-28 06:30N 34°42' W 076°41'0 0.0
2015-Jan-28 05:31N 34°42' W 076°41'0 0.0
2015-Jan-28 04:30N 34°42' W 076°41'0 0.0
2015-Jan-28 03:30N 34°42' W 076°41'0 0.0
2015-Jan-28 02:33N 34°42' W 076°41'0 0.0
2015-Jan-28 01:33N 34°42' W 076°41'0 0.0
2015-Jan-28 00:33N 34°42' W 076°41'0 0.0
2015-Jan-27 23:33N 34°42' W 076°41'0 0.0
2015-Jan-27 22:33N 34°42' W 076°41'0 0.0
2015-Jan-27 21:24N 34°42' W 076°41'0 0.0
2015-Jan-27 20:30N 34°42' W 076°41'0 0.0
2015-Jan-27 19:30N 34°42' W 076°41'0 0.0
2015-Jan-27 18:30N 34°42' W 076°41'0 0.0
2015-Jan-27 17:31N 34°42' W 076°41'0 0.0
2015-Jan-27 16:31N 34°42' W 076°41'0 0.0
2015-Jan-27 15:33N 34°42' W 076°41'0 0.0
2015-Jan-27 14:33N 34°42' W 076°41'0 0.0
2015-Jan-27 13:33N 34°42' W 076°41'0 0.0
2015-Jan-27 12:31N 34°42' W 076°41'0 0.0
2015-Jan-27 11:33N 34°42' W 076°41'0 0.0
2015-Jan-27 10:30N 34°42' W 076°41'0 0.0
2015-Jan-27 09:30N 34°42' W 076°41'0 0.0
2015-Jan-27 08:30N 34°42' W 076°41'0 0.0
2015-Jan-27 07:33N 34°42' W 076°41'0 0.0
2015-Jan-27 06:34N 34°42' W 076°41'0 0.0
2015-Jan-27 05:33N 34°42' W 076°41'0 0.0
2015-Jan-27 04:33N 34°42' W 076°41'0 0.0
2015-Jan-27 03:28N 34°42' W 076°41'0 0.0
2015-Jan-27 02:30N 34°42' W 076°41'0 0.0
2015-Jan-27 01:30N 34°42' W 076°41'0 0.0
2015-Jan-27 00:31N 34°42' W 076°41'0 0.0
2015-Jan-26 23:31N 34°42' W 076°41'0 0.0
2015-Jan-26 22:31N 34°42' W 076°41'0 0.0
2015-Jan-26 21:34N 34°42' W 076°41'0 0.0
2015-Jan-26 20:33N 34°42' W 076°41'0 0.0
2015-Jan-26 19:33N 34°42' W 076°41'0 0.0
2015-Jan-26 18:33N 34°42' W 076°41'0 0.0
2015-Jan-26 17:31N 34°42' W 076°41'0 0.0
2015-Jan-26 16:31N 34°42' W 076°41'0 0.0
2015-Jan-26 15:31N 34°42' W 076°41'0 0.0
2015-Jan-26 14:31N 34°42' W 076°41'0 0.0
2015-Jan-26 13:28N 34°42' W 076°41'0 0.0
2015-Jan-26 12:30N 34°42' W 076°41'0 0.0
2015-Jan-26 11:30N 34°42' W 076°41'0 0.0
2015-Jan-26 10:30N 34°42' W 076°41'0 0.0
2015-Jan-26 09:28N 34°42' W 076°41'0 0.0
2015-Jan-26 08:30N 34°42' W 076°41'0 0.0
2015-Jan-26 07:34N 34°42' W 076°41'0 0.0
2015-Jan-26 06:31N 34°42' W 076°41'0 0.0
2015-Jan-26 05:33N 34°42' W 076°41'0 0.0
2015-Jan-26 04:33N 34°42' W 076°41'0 0.0
2015-Jan-26 03:31N 34°42' W 076°41'0 0.0
2015-Jan-26 02:31N 34°42' W 076°41'0 0.0
2015-Jan-26 01:31N 34°42' W 076°41'0 0.0
2015-Jan-26 00:28N 34°42' W 076°41'0 0.0
2015-Jan-25 23:30N 34°42' W 076°41'0 0.0
2015-Jan-25 22:30N 34°42' W 076°41'0 0.0
2015-Jan-25 21:30N 34°42' W 076°41'0 0.0
2015-Jan-25 20:31N 34°42' W 076°41'0 0.0
2015-Jan-25 19:33N 34°42' W 076°41'0 0.0
2015-Jan-25 18:31N 34°42' W 076°41'0 0.0
2015-Jan-25 17:33N 34°42' W 076°41'0 0.0
2015-Jan-25 16:33N 34°42' W 076°41'0 0.0
2015-Jan-25 15:33N 34°42' W 076°41'0 0.0
2015-Jan-25 14:31N 34°42' W 076°41'0 0.0
2015-Jan-25 13:30N 34°42' W 076°41'0 0.0
2015-Jan-25 12:30N 34°42' W 076°41'0 0.0
2015-Jan-25 11:31N 34°42' W 076°41'0 0.0
2015-Jan-25 10:33N 34°42' W 076°41'0 0.0
2015-Jan-25 09:33N 34°42' W 076°41'0 0.0
2015-Jan-25 08:33N 34°42' W 076°41'0 0.0
2015-Jan-25 07:33N 34°42' W 076°41'0 0.0
2015-Jan-25 06:31N 34°42' W 076°41'0 0.0
2015-Jan-25 05:30N 34°42' W 076°41'0 0.0
2015-Jan-25 04:30N 34°42' W 076°41'0 0.0
2015-Jan-25 03:30N 34°42' W 076°41'0 0.0
2015-Jan-25 02:31N 34°42' W 076°41'0 0.0
2015-Jan-25 01:31N 34°42' W 076°41'0 0.0
2015-Jan-25 00:31N 34°42' W 076°41'0 0.0
2015-Jan-24 23:28N 34°42' W 076°41'0 0.0
2015-Jan-24 22:33N 34°42' W 076°41'0 0.0
2015-Jan-24 21:33N 34°42' W 076°41'0 0.0
2015-Jan-24 20:33N 34°42' W 076°41'0 0.0
2015-Jan-24 19:28N 34°42' W 076°41'0 0.0
2015-Jan-24 18:30N 34°42' W 076°41'0 0.0
2015-Jan-24 17:30N 34°42' W 076°41'0 0.0
2015-Jan-24 16:30N 34°42' W 076°41'0 0.0
2015-Jan-24 15:30N 34°42' W 076°41'0 0.0
2015-Jan-24 14:31N 34°42' W 076°41'0 0.0
2015-Jan-24 13:28N 34°42' W 076°41'0 0.0
2015-Jan-24 12:34N 34°42' W 076°41'0 0.0
2015-Jan-24 11:33N 34°42' W 076°41'0 0.0
2015-Jan-24 10:33N 34°42' W 076°41'0 0.0
2015-Jan-24 09:31N 34°42' W 076°41'0 0.0
2015-Jan-24 08:30N 34°42' W 076°41'0 0.0
2015-Jan-24 07:30N 34°42' W 076°41'0 0.0
2015-Jan-24 06:31N 34°42' W 076°41'0 0.0
2015-Jan-24 05:31N 34°42' W 076°41'0 0.0
2015-Jan-24 04:31N 34°42' W 076°41'0 0.0
2015-Jan-24 03:33N 34°42' W 076°41'0 0.0
2015-Jan-24 02:33N 34°42' W 076°41'0 0.0
2015-Jan-24 01:28N 34°42' W 076°41'0 0.0
2015-Jan-24 00:31N 34°42' W 076°41'0 0.0
2015-Jan-23 23:31N 34°42' W 076°41'0 0.0
2015-Jan-23 22:30N 34°42' W 076°41'0 0.0
2015-Jan-23 21:28N 34°42' W 076°41'0 0.0
2015-Jan-23 20:33N 34°42' W 076°41'0 0.0
2015-Jan-23 19:33N 34°42' W 076°41'0 0.0
2015-Jan-23 18:31N 34°42' W 076°41'0 0.0
2015-Jan-23 17:31N 34°42' W 076°41'3 3.3
2015-Jan-23 16:33N 34°39' W 076°40'3 3.1
2015-Jan-23 15:33N 34°37' W 076°44'1312.5
2015-Jan-23 14:33N 34°36' W 076°59'2 2.3
2015-Jan-23 13:33N 34°35' W 077°01'0 0.0
2015-Jan-23 12:33N 34°35' W 077°01'1 1.0
2015-Jan-23 11:32N 34°36' W 077°01'0 0.0
2015-Jan-23 10:33N 34°36' W 077°01'0 0.0
2015-Jan-23 09:30N 34°36' W 077°01'0 0.0
2015-Jan-23 08:28N 34°36' W 077°01'0 0.0
2015-Jan-23 07:30N 34°36' W 077°01'0 0.0
2015-Jan-23 06:33N 34°36' W 077°01'0 0.0
2015-Jan-23 05:31N 34°36' W 077°01'0 0.0
2015-Jan-23 04:15N 34°36' W 077°01'0 0.0
2015-Jan-23 03:27N 34°36' W 077°01'0 0.0
2015-Jan-23 01:31N 34°36' W 077°01'0 0.0
2015-Jan-23 00:30N 34°36' W 077°01'0 0.0
2015-Jan-22 23:33N 34°36' W 077°01'0 0.3
2015-Jan-22 22:34N 34°36' W 077°01'43 0.9
2015-Jan-20 23:14N 34°44' W 076°10'1115.6
2015-Jan-20 22:33N 34°34' W 076°15'1413.7
2015-Jan-20 21:30N 34°26' W 076°30'1212.3
2015-Jan-20 20:33N 34°34' W 076°40'8 8.2
2015-Jan-20 19:32N 34°42' W 076°41'0 0.0
2015-Jan-20 18:32N 34°42' W 076°41'0 0.0
2015-Jan-20 17:32N 34°42' W 076°41'  
Track history (hours):
 
Tides and Currents Weather Stations Pressure Air Temp Water Temp Dewpoint Dewpoint Depression Visibility Wind Speed Wind Dir Waves Ship Positions

Callsign NRPK (name unknown)

Last reported at 2015-Jan-30 17:31 UTC. Time now 2015-Feb-02 01:45 UTC.
Position N 34°42' W 076°41'.

AWS

Date/timePositionNaut miles runAvg speedWind from/ knotsBaromVisibWave heightAir tempDewpointWater temp
2015-Jan-30 17:31N 34°42' W 076°41'0 0.0
2015-Jan-30 16:31N 34°42' W 076°41'0 0.0
2015-Jan-30 15:31N 34°42' W 076°41'0 0.0
2015-Jan-30 14:31N 34°42' W 076°41'0 0.0
2015-Jan-30 13:32N 34°42' W 076°41'0 0.0
2015-Jan-30 12:32N 34°42' W 076°41'0 0.0
2015-Jan-30 11:29N 34°42' W 076°41'0 0.0
2015-Jan-30 10:32N 34°42' W 076°41'0 0.0
2015-Jan-30 09:31N 34°42' W 076°41'0 0.0
2015-Jan-30 08:29N 34°42' W 076°41'0 0.0
2015-Jan-30 07:31N 34°42' W 076°41'0 0.0
2015-Jan-30 06:32N 34°42' W 076°41'0 0.0
2015-Jan-30 05:32N 34°42' W 076°41'0 0.0
2015-Jan-30 04:32N 34°42' W 076°41'0 0.0
2015-Jan-30 03:31N 34°42' W 076°41'0 0.0
2015-Jan-30 02:31N 34°42' W 076°41'0 0.0
2015-Jan-30 01:31N 34°42' W 076°41'0 0.0
2015-Jan-30 00:32N 34°42' W 076°41'0 0.0
2015-Jan-29 23:32N 34°42' W 076°41'0 0.0
2015-Jan-29 22:32N 34°42' W 076°41'0 0.0
2015-Jan-29 21:32N 34°42' W 076°41'0 0.1
2015-Jan-29 20:33N 34°42' W 076°41'6 5.8
2015-Jan-29 19:33N 34°37' W 076°45'2 2.1
2015-Jan-29 18:33N 34°39' W 076°43'0 0.1
2015-Jan-29 17:31N 34°39' W 076°43'0 0.0
2015-Jan-29 16:31N 34°39' W 076°43'1 1.5
2015-Jan-29 15:34N 34°39' W 076°45'3 2.6
2015-Jan-29 14:34N 34°38' W 076°42'4 4.1
2015-Jan-29 13:30N 34°42' W 076°41'0 0.0
2015-Jan-29 12:33N 34°42' W 076°41'0 0.0
2015-Jan-29 11:33N 34°42' W 076°41'0 0.0
2015-Jan-29 10:31N 34°42' W 076°41'0 0.0
2015-Jan-29 09:31N 34°42' W 076°41'0 0.0
2015-Jan-29 08:33N 34°42' W 076°41'0 0.0
2015-Jan-29 07:28N 34°42' W 076°41'0 0.0
2015-Jan-29 06:31N 34°42' W 076°41'0 0.0
2015-Jan-29 05:30N 34°42' W 076°41'0 0.0
2015-Jan-29 04:30N 34°42' W 076°41'0 0.0
2015-Jan-29 03:33N 34°42' W 076°41'0 0.0
2015-Jan-29 02:33N 34°42' W 076°41'0 0.0
2015-Jan-29 01:33N 34°42' W 076°41'0 0.0
2015-Jan-29 00:33N 34°42' W 076°41'0 0.0
2015-Jan-28 23:33N 34°42' W 076°41'0 0.0
2015-Jan-28 22:33N 34°42' W 076°41'0 0.0
2015-Jan-28 21:33N 34°42' W 076°41'0 0.0
2015-Jan-28 20:33N 34°42' W 076°41'0 0.0
2015-Jan-28 19:30N 34°42' W 076°41'0 0.0
2015-Jan-28 18:30N 34°42' W 076°41'0 0.0
2015-Jan-28 17:31N 34°42' W 076°41'0 0.0
2015-Jan-28 16:25N 34°42' W 076°41'0 0.0
2015-Jan-28 15:31N 34°42' W 076°41'0 0.0
2015-Jan-28 14:33N 34°42' W 076°41'0 0.0
2015-Jan-28 13:33N 34°42' W 076°41'0 0.0
2015-Jan-28 12:30N 34°42' W 076°41'0 0.0
2015-Jan-28 11:33N 34°42' W 076°41'0 0.0
2015-Jan-28 10:33N 34°42' W 076°41'0 0.0
2015-Jan-28 09:33N 34°42' W 076°41'0 0.0
2015-Jan-28 08:31N 34°42' W 076°41'0 0.0
2015-Jan-28 07:31N 34°42' W 076°41'0 0.0
2015-Jan-28 06:30N 34°42' W 076°41'0 0.0
2015-Jan-28 05:31N 34°42' W 076°41'0 0.0
2015-Jan-28 04:30N 34°42' W 076°41'0 0.0
2015-Jan-28 03:30N 34°42' W 076°41'0 0.0
2015-Jan-28 02:33N 34°42' W 076°41'0 0.0
2015-Jan-28 01:33N 34°42' W 076°41'0 0.0
2015-Jan-28 00:33N 34°42' W 076°41'0 0.0
2015-Jan-27 23:33N 34°42' W 076°41'0 0.0
2015-Jan-27 22:33N 34°42' W 076°41'0 0.0
2015-Jan-27 21:24N 34°42' W 076°41'0 0.0
2015-Jan-27 20:30N 34°42' W 076°41'0 0.0
2015-Jan-27 19:30N 34°42' W 076°41'0 0.0
2015-Jan-27 18:30N 34°42' W 076°41'0 0.0
2015-Jan-27 17:31N 34°42' W 076°41'0 0.0
2015-Jan-27 16:31N 34°42' W 076°41'0 0.0
2015-Jan-27 15:33N 34°42' W 076°41'0 0.0
2015-Jan-27 14:33N 34°42' W 076°41'0 0.0
2015-Jan-27 13:33N 34°42' W 076°41'0 0.0
2015-Jan-27 12:31N 34°42' W 076°41'0 0.0
2015-Jan-27 11:33N 34°42' W 076°41'0 0.0
2015-Jan-27 10:30N 34°42' W 076°41'0 0.0
2015-Jan-27 09:30N 34°42' W 076°41'0 0.0
2015-Jan-27 08:30N 34°42' W 076°41'0 0.0
2015-Jan-27 07:33N 34°42' W 076°41'0 0.0
2015-Jan-27 06:34N 34°42' W 076°41'0 0.0
2015-Jan-27 05:33N 34°42' W 076°41'0 0.0
2015-Jan-27 04:33N 34°42' W 076°41'0 0.0
2015-Jan-27 03:28N 34°42' W 076°41'0 0.0
2015-Jan-27 02:30N 34°42' W 076°41'0 0.0
2015-Jan-27 01:30N 34°42' W 076°41'0 0.0
2015-Jan-27 00:31N 34°42' W 076°41'0 0.0
2015-Jan-26 23:31N 34°42' W 076°41'0 0.0
2015-Jan-26 22:31N 34°42' W 076°41'0 0.0
2015-Jan-26 21:34N 34°42' W 076°41'0 0.0
2015-Jan-26 20:33N 34°42' W 076°41'0 0.0
2015-Jan-26 19:33N 34°42' W 076°41'0 0.0
2015-Jan-26 18:33N 34°42' W 076°41'0 0.0
2015-Jan-26 17:31N 34°42' W 076°41'0 0.0
2015-Jan-26 16:31N 34°42' W 076°41'0 0.0
2015-Jan-26 15:31N 34°42' W 076°41'0 0.0
2015-Jan-26 14:31N 34°42' W 076°41'0 0.0
2015-Jan-26 13:28N 34°42' W 076°41'0 0.0
2015-Jan-26 12:30N 34°42' W 076°41'0 0.0
2015-Jan-26 11:30N 34°42' W 076°41'0 0.0
2015-Jan-26 10:30N 34°42' W 076°41'0 0.0
2015-Jan-26 09:28N 34°42' W 076°41'0 0.0
2015-Jan-26 08:30N 34°42' W 076°41'0 0.0
2015-Jan-26 07:34N 34°42' W 076°41'0 0.0
2015-Jan-26 06:31N 34°42' W 076°41'0 0.0
2015-Jan-26 05:33N 34°42' W 076°41'0 0.0
2015-Jan-26 04:33N 34°42' W 076°41'0 0.0
2015-Jan-26 03:31N 34°42' W 076°41'0 0.0
2015-Jan-26 02:31N 34°42' W 076°41'0 0.0
2015-Jan-26 01:31N 34°42' W 076°41'0 0.0
2015-Jan-26 00:28N 34°42' W 076°41'0 0.0
2015-Jan-25 23:30N 34°42' W 076°41'0 0.0
2015-Jan-25 22:30N 34°42' W 076°41'0 0.0
2015-Jan-25 21:30N 34°42' W 076°41'0 0.0
2015-Jan-25 20:31N 34°42' W 076°41'0 0.0
2015-Jan-25 19:33N 34°42' W 076°41'0 0.0
2015-Jan-25 18:31N 34°42' W 076°41'0 0.0
2015-Jan-25 17:33N 34°42' W 076°41'0 0.0
2015-Jan-25 16:33N 34°42' W 076°41'0 0.0
2015-Jan-25 15:33N 34°42' W 076°41'0 0.0
2015-Jan-25 14:31N 34°42' W 076°41'0 0.0
2015-Jan-25 13:30N 34°42' W 076°41'0 0.0
2015-Jan-25 12:30N 34°42' W 076°41'0 0.0
2015-Jan-25 11:31N 34°42' W 076°41'0 0.0
2015-Jan-25 10:33N 34°42' W 076°41'0 0.0
2015-Jan-25 09:33N 34°42' W 076°41'0 0.0
2015-Jan-25 08:33N 34°42' W 076°41'0 0.0
2015-Jan-25 07:33N 34°42' W 076°41'0 0.0
2015-Jan-25 06:31N 34°42' W 076°41'0 0.0
2015-Jan-25 05:30N 34°42' W 076°41'0 0.0
2015-Jan-25 04:30N 34°42' W 076°41'0 0.0
2015-Jan-25 03:30N 34°42' W 076°41'0 0.0
2015-Jan-25 02:31N 34°42' W 076°41'0 0.0
2015-Jan-25 01:31N 34°42' W 076°41'0 0.0
2015-Jan-25 00:31N 34°42' W 076°41'0 0.0
2015-Jan-24 23:28N 34°42' W 076°41'0 0.0
2015-Jan-24 22:33N 34°42' W 076°41'0 0.0
2015-Jan-24 21:33N 34°42' W 076°41'0 0.0
2015-Jan-24 20:33N 34°42' W 076°41'0 0.0
2015-Jan-24 19:28N 34°42' W 076°41'0 0.0
2015-Jan-24 18:30N 34°42' W 076°41'0 0.0
2015-Jan-24 17:30N 34°42' W 076°41'0 0.0
2015-Jan-24 16:30N 34°42' W 076°41'0 0.0
2015-Jan-24 15:30N 34°42' W 076°41'0 0.0
2015-Jan-24 14:31N 34°42' W 076°41'0 0.0
2015-Jan-24 13:28N 34°42' W 076°41'0 0.0
2015-Jan-24 12:34N 34°42' W 076°41'0 0.0
2015-Jan-24 11:33N 34°42' W 076°41'0 0.0
2015-Jan-24 10:33N 34°42' W 076°41'0 0.0
2015-Jan-24 09:31N 34°42' W 076°41'0 0.0
2015-Jan-24 08:30N 34°42' W 076°41'0 0.0
2015-Jan-24 07:30N 34°42' W 076°41'0 0.0
2015-Jan-24 06:31N 34°42' W 076°41'0 0.0
2015-Jan-24 05:31N 34°42' W 076°41'0 0.0
2015-Jan-24 04:31N 34°42' W 076°41'0 0.0
2015-Jan-24 03:33N 34°42' W 076°41'0 0.0
2015-Jan-24 02:33N 34°42' W 076°41'0 0.0
2015-Jan-24 01:28N 34°42' W 076°41'0 0.0
2015-Jan-24 00:31N 34°42' W 076°41'0 0.0
2015-Jan-23 23:31N 34°42' W 076°41'0 0.0
2015-Jan-23 22:30N 34°42' W 076°41'0 0.0
2015-Jan-23 21:28N 34°42' W 076°41'0 0.0
2015-Jan-23 20:33N 34°42' W 076°41'0 0.0
2015-Jan-23 19:33N 34°42' W 076°41'0 0.0
2015-Jan-23 18:31N 34°42' W 076°41'0 0.0
2015-Jan-23 17:31N 34°42' W 076°41'3 3.3
2015-Jan-23 16:33N 34°39' W 076°40'3 3.1
2015-Jan-23 15:33N 34°37' W 076°44'1312.5
2015-Jan-23 14:33N 34°36' W 076°59'2 2.3
2015-Jan-23 13:33N 34°35' W 077°01'0 0.0
2015-Jan-23 12:33N 34°35' W 077°01'1 1.0
2015-Jan-23 11:32N 34°36' W 077°01'0 0.0
2015-Jan-23 10:33N 34°36' W 077°01'0 0.0
2015-Jan-23 09:30N 34°36' W 077°01'0 0.0
2015-Jan-23 08:28N 34°36' W 077°01'0 0.0
2015-Jan-23 07:30N 34°36' W 077°01'0 0.0
2015-Jan-23 06:33N 34°36' W 077°01'0 0.0
2015-Jan-23 05:31N 34°36' W 077°01'0 0.0
2015-Jan-23 04:15N 34°36' W 077°01'0 0.0
2015-Jan-23 03:27N 34°36' W 077°01'0 0.0
2015-Jan-23 01:31N 34°36' W 077°01'0 0.0
2015-Jan-23 00:30N 34°36' W 077°01'0 0.0
2015-Jan-22 23:33N 34°36' W 077°01'0 0.3
2015-Jan-22 22:34N 34°36' W 077°01'43 0.9
2015-Jan-20 23:14N 34°44' W 076°10'1115.6
2015-Jan-20 22:33N 34°34' W 076°15'1413.7
2015-Jan-20 21:30N 34°26' W 076°30'1212.3
2015-Jan-20 20:33N 34°34' W 076°40'8 8.2
2015-Jan-20 19:32N 34°42' W 076°41'0 0.0
2015-Jan-20 18:32N 34°42' W 076°41'0 0.0
2015-Jan-20 17:32N 34°42' W 076°41'  

Dump ship's entire track history